<?xml version="1.0" encoding="utf-8"?>
<gpx xmlns:xsi="http://www.w3.org/2001/XMLSchema-instance" xmlns:xsd="http://www.w3.org/2001/XMLSchema" version="1.1" creator="Shapelink.com" xmlns="http://www.topografix.com/GPX/1/1" xmlns:gpxtpx="http://www.garmin.com/xmlschemas/TrackPointExtension/v1">
  <metadata>
    <name>Övrigt 1.74 km, 2020-09-07</name>
    <desc></desc>
    <author><name>Marian Moron</name></author> 
    <time>2020-09-07T20:29:43Z</time>
  </metadata>
  <trk>
    <name>Övrigt 1.74 km, 2020-09-07</name>
    <trkseg>
      <trkpt lat="51.22995235603" lon="4.45806271282">
        <ele>13.8</ele>
        <time>2020-09-07T20:29:43Z</time>
      </trkpt>
      <trkpt lat="51.229958307179" lon="4.45809875499">
        <ele>13.2</ele>
        <time>2020-09-07T20:29:45Z</time>
      </trkpt>
      <trkpt lat="51.229983452879" lon="4.458233955037">
        <ele>11</ele>
        <time>2020-09-07T20:29:57Z</time>
      </trkpt>
      <trkpt lat="51.230057632694" lon="4.458511563565">
        <ele>8.4</ele>
        <time>2020-09-07T20:30:33Z</time>
      </trkpt>
      <trkpt lat="51.230076324331" lon="4.458751453543">
        <ele>6.8</ele>
        <time>2020-09-07T20:30:49Z</time>
      </trkpt>
      <trkpt lat="51.230281932338" lon="4.458930742384">
        <ele>5.6</ele>
        <time>2020-09-07T20:31:10Z</time>
      </trkpt>
      <trkpt lat="51.230425262828" lon="4.458907859797">
        <ele>6</ele>
        <time>2020-09-07T20:31:25Z</time>
      </trkpt>
      <trkpt lat="51.230475218952" lon="4.459052782848">
        <ele>7.8</ele>
        <time>2020-09-07T20:31:43Z</time>
      </trkpt>
      <trkpt lat="51.23048544487" lon="4.459083879697">
        <ele>8.2</ele>
        <time>2020-09-07T20:31:45Z</time>
      </trkpt>
      <trkpt lat="51.230520145936" lon="4.459199801374">
        <ele>9.4</ele>
        <time>2020-09-07T20:31:57Z</time>
      </trkpt>
      <trkpt lat="51.230579154512" lon="4.459337683629">
        <ele>12</ele>
        <time>2020-09-07T20:32:14Z</time>
      </trkpt>
      <trkpt lat="51.230611341008" lon="4.459398368585">
        <ele>12.6</ele>
        <time>2020-09-07T20:32:24Z</time>
      </trkpt>
      <trkpt lat="51.230645455341" lon="4.459634486708">
        <ele>13</ele>
        <time>2020-09-07T20:32:41Z</time>
      </trkpt>
      <trkpt lat="51.230635564699" lon="4.459764070882">
        <ele>12.8</ele>
        <time>2020-09-07T20:33:00Z</time>
      </trkpt>
      <trkpt lat="51.230651071214" lon="4.459795670645">
        <ele>12.4</ele>
        <time>2020-09-07T20:33:03Z</time>
      </trkpt>
      <trkpt lat="51.230673367068" lon="4.460534199854">
        <ele>11</ele>
        <time>2020-09-07T20:33:46Z</time>
      </trkpt>
      <trkpt lat="51.230584099833" lon="4.4607130696">
        <ele>11.2</ele>
        <time>2020-09-07T20:34:10Z</time>
      </trkpt>
      <trkpt lat="51.230562306893" lon="4.460734275807">
        <ele>10.8</ele>
        <time>2020-09-07T20:34:12Z</time>
      </trkpt>
      <trkpt lat="51.230238849372" lon="4.460847515276">
        <ele>8.2</ele>
        <time>2020-09-07T20:34:34Z</time>
      </trkpt>
      <trkpt lat="51.230221666477" lon="4.460865284904">
        <ele>7.4</ele>
        <time>2020-09-07T20:34:36Z</time>
      </trkpt>
      <trkpt lat="51.229977417911" lon="4.460970310111">
        <ele>7.4</ele>
        <time>2020-09-07T20:35:49Z</time>
      </trkpt>
      <trkpt lat="51.229951601659" lon="4.460968549912">
        <ele>7.4</ele>
        <time>2020-09-07T20:35:51Z</time>
      </trkpt>
      <trkpt lat="51.229826208435" lon="4.460961006202">
        <ele>10</ele>
        <time>2020-09-07T20:36:05Z</time>
      </trkpt>
      <trkpt lat="51.229610039234" lon="4.461275327452">
        <ele>12.8</ele>
        <time>2020-09-07T20:37:07Z</time>
      </trkpt>
      <trkpt lat="51.229548516088" lon="4.461279015488">
        <ele>16</ele>
        <time>2020-09-07T20:37:46Z</time>
      </trkpt>
      <trkpt lat="51.229300495667" lon="4.461398122287">
        <ele>11.4</ele>
        <time>2020-09-07T20:38:34Z</time>
      </trkpt>
      <trkpt lat="51.229027916279" lon="4.461244984974">
        <ele>7.2</ele>
        <time>2020-09-07T20:39:28Z</time>
      </trkpt>
      <trkpt lat="51.228590129642" lon="4.461407258558">
        <ele>10.6</ele>
        <time>2020-09-07T20:40:25Z</time>
      </trkpt>
      <trkpt lat="51.228579065534" lon="4.461418574123">
        <ele>11</ele>
        <time>2020-09-07T20:40:26Z</time>
      </trkpt>
      <trkpt lat="51.228401955987" lon="4.461285218094">
        <ele>22</ele>
        <time>2020-09-07T20:40:51Z</time>
      </trkpt>
      <trkpt lat="51.228261559162" lon="4.460906523852">
        <ele>46.8</ele>
        <time>2020-09-07T20:41:37Z</time>
      </trkpt>
      <trkpt lat="51.227978502399" lon="4.460403609852">
        <ele>7.4</ele>
        <time>2020-09-07T20:42:50Z</time>
      </trkpt>
      <trkpt lat="51.227904993136" lon="4.460491200707">
        <ele>5</ele>
        <time>2020-09-07T20:43:06Z</time>
      </trkpt>
      <trkpt lat="51.227815306806" lon="4.460592202602">
        <ele>3.8</ele>
        <time>2020-09-07T20:43:27Z</time>
      </trkpt>
      <trkpt lat="51.227798459187" lon="4.460615588103">
        <ele>3.2</ele>
        <time>2020-09-07T20:43:29Z</time>
      </trkpt>
      <trkpt lat="51.227679436207" lon="4.460712399048">
        <ele>4.4</ele>
        <time>2020-09-07T20:43:51Z</time>
      </trkpt>
      <trkpt lat="51.227311722254" lon="4.460710890306">
        <ele>4</ele>
        <time>2020-09-07T20:44:58Z</time>
      </trkpt>
      <trkpt lat="51.227303088897" lon="4.460699239465">
        <ele>4</ele>
        <time>2020-09-07T20:44:59Z</time>
      </trkpt>
      <trkpt lat="51.227249780013" lon="4.460042852876">
        <ele>9.4</ele>
        <time>2020-09-07T20:45:50Z</time>
      </trkpt>
      <trkpt lat="51.227089434266" lon="4.459368864297">
        <ele>5.8</ele>
        <time>2020-09-07T20:46:34Z</time>
      </trkpt>
      <trkpt lat="51.227091278284" lon="4.458991678797">
        <ele>5.2</ele>
        <time>2020-09-07T20:47:31Z</time>
      </trkpt>
      <trkpt lat="51.227531830948" lon="4.458855053827">
        <ele>3</ele>
        <time>2020-09-07T20:48:17Z</time>
      </trkpt>
      <trkpt lat="51.227604334383" lon="4.458825130444">
        <ele>3.2</ele>
        <time>2020-09-07T20:48:26Z</time>
      </trkpt>
      <trkpt lat="51.227740540258" lon="4.458726978395">
        <ele>1.4</ele>
        <time>2020-09-07T20:48:45Z</time>
      </trkpt>
      <trkpt lat="51.227918739452" lon="4.458649110544">
        <ele>1.2</ele>
        <time>2020-09-07T20:49:06Z</time>
      </trkpt>
      <trkpt lat="51.228091825687" lon="4.458505109502">
        <ele>0</ele>
        <time>2020-09-07T20:49:35Z</time>
      </trkpt>
      <trkpt lat="51.228474794698" lon="4.458218029427">
        <ele>0</ele>
        <time>2020-09-07T20:50:09Z</time>
      </trkpt>
      <trkpt lat="51.228479404743" lon="4.45818676494">
        <ele>0</ele>
        <time>2020-09-07T20:50:11Z</time>
      </trkpt>
      <trkpt lat="51.228466580436" lon="4.458072687281">
        <ele>0</ele>
        <time>2020-09-07T20:50:19Z</time>
      </trkpt>
      <trkpt lat="51.228456522156" lon="4.457979145277">
        <ele>0</ele>
        <time>2020-09-07T20:50:25Z</time>
      </trkpt>
      <trkpt lat="51.228429616257" lon="4.457724167879">
        <ele>0</ele>
        <time>2020-09-07T20:50:41Z</time>
      </trkpt>
      <trkpt lat="51.228392400621" lon="4.457640181241">
        <ele>0</ele>
        <time>2020-09-07T20:50:46Z</time>
      </trkpt>
      <trkpt lat="51.228313107847" lon="4.45739048444">
        <ele>0</ele>
        <time>2020-09-07T20:51:01Z</time>
      </trkpt>
      <trkpt lat="51.228378905762" lon="4.457290320735">
        <ele>0</ele>
        <time>2020-09-07T20:51:05Z</time>
      </trkpt>
      <trkpt lat="51.228485691168" lon="4.457208848667">
        <ele>6</ele>
        <time>2020-09-07T20:51:13Z</time>
      </trkpt>
      <trkpt lat="51.228530031419" lon="4.457167274443">
        <ele>9.6</ele>
        <time>2020-09-07T20:51:22Z</time>
      </trkpt>
      <trkpt lat="51.228665985837" lon="4.456968539594">
        <ele>5</ele>
        <time>2020-09-07T20:52:02Z</time>
      </trkpt>
      <trkpt lat="51.228733208675" lon="4.456824287095">
        <ele>2.8</ele>
        <time>2020-09-07T20:52:16Z</time>
      </trkpt>
      <trkpt lat="51.229184825447" lon="4.456811043693">
        <ele>16.4</ele>
        <time>2020-09-07T20:52:57Z</time>
      </trkpt>
      <trkpt lat="51.229374424025" lon="4.456756980438">
        <ele>17.6</ele>
        <time>2020-09-07T20:53:19Z</time>
      </trkpt>
      <trkpt lat="51.229483388725" lon="4.45666125914">
        <ele>17.8</ele>
        <time>2020-09-07T20:53:36Z</time>
      </trkpt>
      <trkpt lat="51.229671981475" lon="4.456713562196">
        <ele>23.8</ele>
        <time>2020-09-07T20:54:19Z</time>
      </trkpt>
      <trkpt lat="51.229917068231" lon="4.456582050185">
        <ele>20.4</ele>
        <time>2020-09-07T20:55:02Z</time>
      </trkpt>
      <trkpt lat="51.230327110779" lon="4.4564718282">
        <ele>18.2</ele>
        <time>2020-09-07T20:56:17Z</time>
      </trkpt>
      <trkpt lat="51.230770261832" lon="4.456412819624">
        <ele>4.4</ele>
        <time>2020-09-07T20:57:16Z</time>
      </trkpt>
      <trkpt lat="51.231009565077" lon="4.45626311889">
        <ele>6.8</ele>
        <time>2020-09-07T20:57:42Z</time>
      </trkpt>
      <trkpt lat="51.231204863347" lon="4.456261526329">
        <ele>9.2</ele>
        <time>2020-09-07T20:58:01Z</time>
      </trkpt>
      <trkpt lat="51.23133536953" lon="4.456942974799">
        <ele>2.4</ele>
        <time>2020-09-07T20:58:34Z</time>
      </trkpt>
      <trkpt lat="51.231153314662" lon="4.457535910405">
        <ele>0</ele>
        <time>2020-09-07T20:59:21Z</time>
      </trkpt>
      <trkpt lat="51.230894649228" lon="4.457643282544">
        <ele>0</ele>
        <time>2020-09-07T20:59:46Z</time>
      </trkpt>
      <trkpt lat="51.230655178345" lon="4.457712852314">
        <ele>0</ele>
        <time>2020-09-07T21:00:16Z</time>
      </trkpt>
      <trkpt lat="51.230237927363" lon="4.457728442648">
        <ele>6.4</ele>
        <time>2020-09-07T21:01:08Z</time>
      </trkpt>
      <trkpt lat="51.229814725232" lon="4.457907982946">
        <ele>0</ele>
        <time>2020-09-07T21:01:57Z</time>
      </trkpt>
      <trkpt lat="51.229640381712" lon="4.45792608785">
        <ele>0</ele>
        <time>2020-09-07T21:02:32Z</time>
      </trkpt>
    </trkseg>
  </trk>
</gpx>